aviador You're here:

KSBP Decoded Metar

SAN LUIS OBISPO in CA, USA
Report Time2017-07-22 21:56:00
UTC Time2017-07-22 22:36:48
Flight Rules vfr VFR
Wind190° at 05 kt
W.Decomp.*RWY 11: 2.1 kt HW 4.5 kt RCW
RWY 25: 1.3 kt HW 4.8 kt LCW
W.Rank190° ranks 26
Current wind is below 190° avg. (5.3)
Visibility9999 m
Phenomena:N/A
Clouds:N/A
Expected CloudBase > 5,200 ft AGL from Temp-Dew spread
CeilingNone
Temp25°C (ISA +10)
Dew Point12°C (44% RH)
AAT23.8°C
QNH1013 hPa
Density Alt1,585 ft
Elevation194 ft
Report Wrong Elevation
Raw Report
KSBP 222156Z 19005KT 10SM CLR 25/12 A2991 RMK AO2 SLP127 T02500122
$=

Extra information for KSBP:More info

Metar Taf Metar & Taf Last 4 Metars F.Rules Stats Wind Profile Meteogram Temp Stats Airport Information Weather charts Add Link Nearby VenuesMetar ALERT Operation Metar Decoded Social comments

AIRNAV info for KSBP